Time;durP1;ratioP1;P1;durP2;ratioP2;P2;SDS_P1;SDS_P2;PMS_P1;PMS_P2;Temp;Humidity;BMP_temperature;BMP_pressure;BME280_temperature;BME280_humidity;BME280_pressure;Samples;Min_cycle;Max_cycle;Signal;HPM_P1;HPM_P2
2022/04/12 00:01:13;;;;;;;;;;;;;;;3.74;84.50;100056.03;4992950;28;1969;-56
2022/04/12 00:03:39;;;;;;;;;;;;;;;3.66;85.12;100042.16;4993116;28;811;-56
2022/04/12 00:06:06;;;;;;;;;;;;;;;3.49;85.73;100050.66;4993056;28;792;-56
2022/04/12 00:08:33;;;;;;;;;;;;;;;3.27;86.17;100052.03;4993064;28;931;-56
2022/04/12 00:11:00;;;;;;;;;;;;;;;2.92;87.61;100046.31;4992964;28;882;-56
2022/04/12 00:13:26;;;;;;;;;;;;;;;2.62;87.99;100052.03;4992869;28;906;-56
2022/04/12 00:15:53;;;;;;;;;;;;;;;2.38;89.15;100050.13;4992896;28;883;-56
2022/04/12 00:21:04;;;;;;;;;;;;;;;1.89;90.26;100053.59;4993567;28;1890;-56
2022/04/12 00:23:31;;;;;;;;;;;;;;;1.90;91.63;100057.09;4993049;28;909;-56
2022/04/12 00:25:58;;;;;;;;;;;;;;;1.97;92.18;100057.38;4992742;28;1281;-56
2022/04/12 00:28:25;;;;;;;;;;;;;;;2.02;91.94;100060.66;4992955;28;835;-56
2022/04/12 00:30:52;;;;;;;;;;;;;;;2.09;91.21;100059.28;4992697;28;815;-56
2022/04/12 00:33:18;;;;;;;;;;;;;;;2.17;91.47;100058.41;4992952;28;780;-56
2022/04/12 00:35:45;;;;;;;;;;;;;;;2.15;90.46;100057.94;4992469;28;914;-56
2022/04/12 00:38:23;;;;;;;;;;;;;;;2.07;90.71;100062.38;4992464;28;910;-56
2022/04/12 00:40:50;;;;;;;;;;;;;;;1.99;90.82;100058.59;4992425;28;807;-56
2022/04/12 00:43:18;;;;;;;;;;;;;;;2.00;90.98;100067.56;4992302;28;2444;-56
2022/04/12 00:45:45;;;;;;;;;;;;;;;2.12;90.34;100067.59;4992573;28;803;-56
2022/04/12 00:48:12;;;;;;;;;;;;;;;2.24;90.83;100062.16;4992522;28;910;-56
2022/04/12 00:50:39;;;;;;;;;;;;;;;2.31;90.15;100064.34;4992373;28;871;-56
2022/04/12 00:53:07;;;;;;;;;;;;;;;2.33;89.39;100064.78;4992657;28;870;-56
2022/04/12 00:55:35;;;;;;;;;;;;;;;2.34;90.18;100060.13;4992200;28;856;-56
2022/04/12 00:58:07;;;;;;;;;;;;;;;2.36;90.14;100064.09;4992366;28;795;-56
2022/04/12 01:00:37;;;;;;;;;;;;;;;2.40;90.03;100061.50;4991849;28;906;-56
2022/04/12 01:03:04;;;;;;;;;;;;;;;2.43;89.44;100063.53;4992499;28;1953;-56
2022/04/12 01:05:32;;;;;;;;;;;;;;;2.48;89.57;100059.78;4992244;28;831;-56
2022/04/12 01:07:59;;;;;;;;;;;;;;;2.42;90.27;100059.22;4992511;28;843;-56
2022/04/12 01:10:24;;;;;;;;;;;;;;;2.35;90.92;100051.59;4992523;28;846;-56
2022/04/12 01:12:54;;;;;;;;;;;;;;;2.30;90.92;100051.81;4992060;28;906;-56
2022/04/12 01:15:22;;;;;;;;;;;;;;;2.25;91.50;100062.97;4992319;28;878;-56
2022/04/12 01:17:50;;;;;;;;;;;;;;;2.21;91.30;100062.03;4992050;28;932;-56
2022/04/12 01:20:18;;;;;;;;;;;;;;;2.07;91.33;100065.09;4992077;28;941;-56
2022/04/12 01:23:03;;;;;;;;;;;;;;;1.86;91.14;100065.19;4991858;28;1948;-56
2022/04/12 01:25:30;;;;;;;;;;;;;;;1.65;92.23;100072.63;4992050;28;1219;-56
2022/04/12 01:27:56;;;;;;;;;;;;;;;1.53;92.62;100065.97;4992327;28;854;-56
2022/04/12 01:30:23;;;;;;;;;;;;;;;1.48;92.50;100070.84;4992223;28;926;-56
2022/04/12 01:32:50;;;;;;;;;;;;;;;1.43;92.85;100066.41;4992158;28;874;-56
2022/04/12 01:35:16;;;;;;;;;;;;;;;1.46;93.37;100063.00;4992434;28;929;-56
2022/04/12 01:37:43;;;;;;;;;;;;;;;1.47;93.13;100061.84;4992086;28;854;-56
2022/04/12 01:40:10;;;;;;;;;;;;;;;1.49;94.04;100061.53;4992450;28;866;-56
2022/04/12 01:42:39;;;;;;;;;;;;;;;1.43;93.09;100059.03;4991858;28;1915;-56
2022/04/12 01:45:07;;;;;;;;;;;;;;;1.42;93.55;100060.13;4991864;28;906;-56
2022/04/12 01:47:34;;;;;;;;;;;;;;;1.39;93.67;100060.03;4992001;28;885;-56
2022/04/12 01:50:00;;;;;;;;;;;;;;;1.35;93.84;100067.28;4992230;28;878;-56
2022/04/12 01:52:26;;;;;;;;;;;;;;;1.38;93.97;100072.03;4991956;28;851;-56
2022/04/12 01:54:53;;;;;;;;;;;;;;;1.46;94.57;100071.19;4992046;28;811;-56
2022/04/12 01:57:20;;;;;;;;;;;;;;;1.47;94.44;100071.97;4992045;28;842;-56
2022/04/12 01:59:47;;;;;;;;;;;;;;;1.38;94.15;100061.94;4974572;28;853;-56
2022/04/12 02:02:12;;;;;;;;;;;;;;;1.29;93.82;100060.44;4992448;28;1957;-56
2022/04/12 02:04:39;;;;;;;;;;;;;;;1.17;94.79;100058.44;4974206;28;1236;-56
2022/04/12 02:07:06;;;;;;;;;;;;;;;1.05;94.96;100050.22;4991649;28;827;-56
2022/04/12 02:09:32;;;;;;;;;;;;;;;0.99;94.67;100044.19;4991540;28;823;-56
2022/04/12 02:11:59;;;;;;;;;;;;;;;1.11;95.85;100049.69;4993620;28;874;-56
2022/04/12 02:14:26;;;;;;;;;;;;;;;1.28;95.32;100048.75;4977750;28;1053;-56
2022/04/12 02:16:53;;;;;;;;;;;;;;;1.25;95.90;100046.69;4995023;28;926;-56
2022/04/12 02:19:19;;;;;;;;;;;;;;;1.23;96.30;100057.09;4995029;28;819;-56
2022/04/12 02:21:46;;;;;;;;;;;;;;;1.25;95.86;100056.78;4994974;28;1943;-56
2022/04/12 02:24:12;;;;;;;;;;;;;;;1.25;95.71;100056.78;4995170;28;935;-56
2022/04/12 02:26:40;;;;;;;;;;;;;;;1.14;96.15;100048.22;4994803;28;1277;-56
2022/04/12 02:29:07;;;;;;;;;;;;;;;1.05;96.27;100056.47;4994793;28;859;-56
2022/04/12 02:31:33;;;;;;;;;;;;;;;0.99;96.43;100058.56;4994786;28;926;-56
2022/04/12 02:33:59;;;;;;;;;;;;;;;1.18;97.65;100057.31;4994791;28;890;-56
2022/04/12 02:36:26;;;;;;;;;;;;;;;1.41;97.09;100055.06;4994803;28;839;-56
2022/04/12 02:38:52;;;;;;;;;;;;;;;1.51;96.89;100056.53;4994507;28;981;-56
2022/04/12 02:41:19;;;;;;;;;;;;;;;1.55;96.25;100062.91;4994622;28;1914;-56
2022/04/12 02:43:45;;;;;;;;;;;;;;;1.61;94.79;100065.09;4994522;28;911;-56
2022/04/12 02:46:11;;;;;;;;;;;;;;;1.57;94.31;100068.84;4994521;28;851;-56
2022/04/12 02:48:38;;;;;;;;;;;;;;;1.52;95.07;100072.56;4994599;28;878;-56
2022/04/12 02:51:04;;;;;;;;;;;;;;;1.42;95.04;100079.22;4994443;28;906;-56
2022/04/12 02:53:32;;;;;;;;;;;;;;;1.27;94.47;100079.81;4994540;28;855;-56
2022/04/12 02:55:58;;;;;;;;;;;;;;;1.30;96.02;100084.63;4994424;28;874;-56
2022/04/12 02:58:25;;;;;;;;;;;;;;;1.63;96.93;100071.00;4994379;28;803;-56
2022/04/12 03:00:51;;;;;;;;;;;;;;;1.93;96.40;100076.31;4994495;28;914;-56
2022/04/12 03:03:18;;;;;;;;;;;;;;;2.03;94.03;100080.56;4994192;28;1955;-56
2022/04/12 03:05:45;;;;;;;;;;;;;;;2.08;93.81;100084.97;4994262;28;796;-56
2022/04/12 03:08:12;;;;;;;;;;;;;;;2.17;92.75;100075.56;4994130;28;862;-56
2022/04/12 03:10:38;;;;;;;;;;;;;;;2.26;91.10;100067.25;4994033;28;862;-56
2022/04/12 03:13:05;;;;;;;;;;;;;;;2.54;87.75;100075.59;4994051;28;949;-56
2022/04/12 03:15:31;;;;;;;;;;;;;;;2.66;85.65;100085.69;4994120;28;807;-56
2022/04/12 03:17:58;;;;;;;;;;;;;;;2.71;84.84;100076.47;4993859;28;875;-56
2022/04/12 03:20:25;;;;;;;;;;;;;;;2.61;84.51;100073.06;4994270;28;870;-56
2022/04/12 03:22:52;;;;;;;;;;;;;;;2.58;83.91;100075.69;4976218;28;1894;-56
2022/04/12 03:25:17;;;;;;;;;;;;;;;2.48;84.28;100068.78;4993570;28;1386;-56
2022/04/12 03:27:44;;;;;;;;;;;;;;;2.39;85.09;100070.78;4993877;28;811;-56
2022/04/12 03:30:11;;;;;;;;;;;;;;;2.20;85.96;100072.16;4993970;28;815;-56
2022/04/12 03:32:38;;;;;;;;;;;;;;;2.00;86.90;100083.94;4993685;28;851;-56
2022/04/12 03:35:04;;;;;;;;;;;;;;;1.77;87.71;100084.34;4993726;28;913;-56
2022/04/12 03:37:31;;;;;;;;;;;;;;;1.47;88.29;100089.09;4993554;28;807;-56
2022/04/12 03:39:57;;;;;;;;;;;;;;;1.40;90.08;100092.38;4993499;28;823;-56
2022/04/12 03:42:24;;;;;;;;;;;;;;;1.55;89.38;100093.69;4993553;28;1984;-56
2022/04/12 03:44:51;;;;;;;;;;;;;;;1.72;88.30;100087.28;4993495;28;831;-56
2022/04/12 03:47:18;;;;;;;;;;;;;;;1.93;87.48;100092.66;4993378;28;894;-56
2022/04/12 03:49:45;;;;;;;;;;;;;;;2.07;85.83;100100.56;4993452;28;826;-56
2022/04/12 03:52:12;;;;;;;;;;;;;;;2.09;85.21;100101.03;4993242;28;910;-56
2022/04/12 03:54:38;;;;;;;;;;;;;;;2.09;84.45;100097.47;4993411;28;872;-56
2022/04/12 03:57:05;;;;;;;;;;;;;;;2.09;85.15;100103.75;4993241;28;867;-56
2022/04/12 03:59:32;;;;;;;;;;;;;;;2.08;85.05;100114.97;4993266;28;811;-56
2022/04/12 04:01:59;;;;;;;;;;;;;;;2.04;84.93;100112.13;4993091;28;1894;-56
2022/04/12 04:04:25;;;;;;;;;;;;;;;2.00;84.58;100113.94;4993191;28;831;-56
2022/04/12 04:06:52;;;;;;;;;;;;;;;2.20;83.69;100118.53;4993109;28;807;-56
2022/04/12 04:09:18;;;;;;;;;;;;;;;2.28;83.26;100124.22;4993306;28;878;-56
2022/04/12 04:11:45;;;;;;;;;;;;;;;2.24;83.32;100124.91;4993196;28;796;-56
2022/04/12 04:14:13;;;;;;;;;;;;;;;2.29;82.40;100134.00;4993120;28;867;-56
2022/04/12 04:16:40;;;;;;;;;;;;;;;2.39;81.87;100128.91;4992789;28;851;-54
2022/04/12 04:19:09;;;;;;;;;;;;;;;2.51;80.55;100128.09;4992815;28;918;-56
2022/04/12 04:21:38;;;;;;;;;;;;;;;2.65;80.84;100130.50;4992767;28;1922;-56
2022/04/12 04:24:05;;;;;;;;;;;;;;;2.79;79.80;100133.66;4993003;28;1021;-55
2022/04/12 04:26:32;;;;;;;;;;;;;;;2.86;79.56;100139.38;4992534;28;1295;-56
2022/04/12 04:28:58;;;;;;;;;;;;;;;2.97;79.62;100141.66;4975173;28;1663;-56
2022/04/12 04:31:25;;;;;;;;;;;;;;;3.42;78.98;100138.72;4992807;28;812;-56
2022/04/12 04:33:51;;;;;;;;;;;;;;;4.06;75.57;100139.72;4992130;28;890;-56
2022/04/12 04:36:18;;;;;;;;;;;;;;;4.22;73.93;100149.88;4992530;28;950;-56
2022/04/12 04:38:45;;;;;;;;;;;;;;;4.45;73.30;100147.34;4992610;28;823;-56
2022/04/12 04:41:11;;;;;;;;;;;;;;;4.59;73.16;100142.22;4992487;28;851;-56
2022/04/12 04:43:38;;;;;;;;;;;;;;;4.38;72.93;100152.66;4992515;28;902;-56
2022/04/12 04:46:05;;;;;;;;;;;;;;;4.44;75.23;100151.25;4992642;28;910;-56
2022/04/12 04:48:32;;;;;;;;;;;;;;;4.84;73.26;100155.72;4992447;28;823;-56
2022/04/12 04:50:58;;;;;;;;;;;;;;;5.18;71.42;100150.63;4992267;28;959;-56
2022/04/12 04:53:25;;;;;;;;;;;;;;;5.31;70.35;100152.09;4992334;28;849;-56
2022/04/12 04:55:51;;;;;;;;;;;;;;;5.32;69.62;100145.47;4992369;28;808;-56
2022/04/12 04:58:17;;;;;;;;;;;;;;;5.46;71.33;100155.94;4975036;28;1627;-55
2022/04/12 05:00:44;;;;;;;;;;;;;;;5.91;69.75;100163.53;4992514;28;799;-56
2022/04/12 05:03:11;;;;;;;;;;;;;;;6.63;69.64;100162.09;4992375;28;1882;-56
2022/04/12 05:05:37;;;;;;;;;;;;;;;6.95;65.25;100159.09;4992415;28;853;-56
2022/04/12 05:08:04;;;;;;;;;;;;;;;7.25;68.37;100169.34;4992357;28;822;-56
2022/04/12 05:10:34;;;;;;;;;;;;;;;8.11;63.56;100171.22;4992597;28;799;-56
2022/04/12 05:13:01;;;;;;;;;;;;;;;8.67;62.23;100176.91;4992091;28;943;-56
2022/04/12 05:15:28;;;;;;;;;;;;;;;8.75;62.95;100182.13;4992050;28;1005;-56
2022/04/12 05:17:55;;;;;;;;;;;;;;;8.56;62.19;100182.34;4992143;28;870;-57
2022/04/12 05:20:24;;;;;;;;;;;;;;;8.02;63.99;100176.22;4991955;28;989;-56
2022/04/12 05:22:51;;;;;;;;;;;;;;;7.64;65.05;100177.34;4992002;28;1951;-56
2022/04/12 05:25:18;;;;;;;;;;;;;;;7.93;64.12;100186.75;4991698;28;1524;-56
2022/04/12 05:27:45;;;;;;;;;;;;;;;8.54;63.30;100185.47;4992044;28;1038;-56
2022/04/12 05:30:13;;;;;;;;;;;;;;;9.40;59.63;100185.31;4992093;28;803;-56
2022/04/12 05:32:40;;;;;;;;;;;;;;;9.84;58.93;100176.09;4991875;28;867;-56
2022/04/12 05:35:07;;;;;;;;;;;;;;;9.73;56.84;100184.31;4991910;28;851;-57
2022/04/12 05:37:48;;;;;;;;;;;;;;;9.18;58.18;100182.44;4991915;28;968;-56
2022/04/12 05:40:15;;;;;;;;;;;;;;;9.52;57.96;100185.00;4991856;28;914;-56
2022/04/12 05:42:42;;;;;;;;;;;;;;;10.32;55.22;100183.34;4991718;28;1914;-56
2022/04/12 05:45:09;;;;;;;;;;;;;;;10.94;54.32;100183.00;4992146;28;803;-56
2022/04/12 05:47:46;;;;;;;;;;;;;;;11.72;52.90;100177.75;4994855;28;922;-56
2022/04/12 05:50:13;;;;;;;;;;;;;;;11.96;51.79;100178.84;4995537;28;859;-56
2022/04/12 05:52:40;;;;;;;;;;;;;;;11.95;50.98;100180.03;4995614;28;795;-56
2022/04/12 05:55:07;;;;;;;;;;;;;;;12.08;52.59;100166.50;4995571;28;822;-56
2022/04/12 05:57:36;;;;;;;;;;;;;;;12.07;51.32;100167.72;4995540;28;815;-56
2022/04/12 06:00:04;;;;;;;;;;;;;;;11.90;51.09;100170.16;4995372;28;957;-57
2022/04/12 06:02:30;;;;;;;;;;;;;;;12.11;52.09;100165.72;4977946;28;1969;-57
2022/04/12 06:04:57;;;;;;;;;;;;;;;12.82;49.34;100161.66;4995354;28;882;-57
2022/04/12 06:07:28;;;;;;;;;;;;;;;12.97;49.25;100165.91;4995270;28;847;-57
2022/04/12 06:09:56;;;;;;;;;;;;;;;13.39;49.14;100166.69;4995269;28;574;-56
2022/04/12 06:12:22;;;;;;;;;;;;;;;13.94;48.05;100166.88;4995219;28;827;-57
2022/04/12 06:14:49;;;;;;;;;;;;;;;14.49;45.55;100169.28;4995180;28;815;-57
2022/04/12 06:17:15;;;;;;;;;;;;;;;14.81;44.65;100162.44;4977635;28;1296;-57
2022/04/12 06:19:42;;;;;;;;;;;;;;;14.99;45.33;100155.78;4995091;28;859;-56
2022/04/12 06:22:08;;;;;;;;;;;;;;;14.93;47.00;100160.28;4995028;28;1890;-57
2022/04/12 06:24:35;;;;;;;;;;;;;;;14.91;47.55;100152.34;4995254;28;1439;-56
2022/04/12 06:27:02;;;;;;;;;;;;;;;15.23;47.25;100150.97;4995017;28;843;-56
2022/04/12 06:29:29;;;;;;;;;;;;;;;15.29;44.28;100158.41;4994912;28;875;-57
2022/04/12 06:31:55;;;;;;;;;;;;;;;14.93;43.42;100158.25;4994775;28;1256;-57
2022/04/12 06:34:22;;;;;;;;;;;;;;;15.13;43.57;100161.13;4994702;28;839;-56
2022/04/12 06:36:49;;;;;;;;;;;;;;;14.94;43.73;100164.63;4994796;28;839;-57
2022/04/12 06:39:15;;;;;;;;;;;;;;;15.10;43.43;100161.94;4994629;28;905;-56
2022/04/12 06:41:41;;;;;;;;;;;;;;;16.15;41.84;100161.50;4994615;28;1927;-56
2022/04/12 06:44:08;;;;;;;;;;;;;;;16.64;41.99;100158.00;4977210;28;1313;-57
2022/04/12 06:46:35;;;;;;;;;;;;;;;16.67;41.41;100160.69;4994571;28;872;-57
2022/04/12 06:49:01;;;;;;;;;;;;;;;16.17;40.59;100161.84;4994567;28;914;-57
2022/04/12 06:51:28;;;;;;;;;;;;;;;15.61;41.37;100167.38;4994522;28;870;-57
2022/04/12 06:53:55;;;;;;;;;;;;;;;15.77;42.50;100169.47;4994555;28;1028;-56
2022/04/12 06:56:21;;;;;;;;;;;;;;;16.02;42.45;100164.16;4994350;28;898;-56
2022/04/12 06:58:48;;;;;;;;;;;;;;;16.05;40.51;100171.69;4994048;28;839;-57
2022/04/12 07:01:15;;;;;;;;;;;;;;;16.16;38.82;100163.06;4994341;28;830;-56
2022/04/12 07:03:41;;;;;;;;;;;;;;;16.25;40.67;100170.84;4994183;28;1870;-56
2022/04/12 07:06:08;;;;;;;;;;;;;;;16.88;39.34;100169.81;4994339;28;997;-57
2022/04/12 07:08:36;;;;;;;;;;;;;;;16.91;38.10;100169.69;4994272;28;811;-57
2022/04/12 07:11:02;;;;;;;;;;;;;;;15.92;40.25;100170.78;4994062;28;950;-57
2022/04/12 07:13:29;;;;;;;;;;;;;;;16.35;38.71;100171.84;4994114;28;827;-57
2022/04/12 07:15:56;;;;;;;;;;;;;;;16.61;36.81;100170.03;4993984;28;915;-57
2022/04/12 07:18:22;;;;;;;;;;;;;;;14.80;39.94;100174.00;4994057;28;799;-57
2022/04/12 07:20:48;;;;;;;;;;;;;;;13.28;43.13;100177.09;4993905;28;948;-57
2022/04/12 07:23:14;;;;;;;;;;;;;;;12.30;45.52;100178.28;4993980;28;1886;-56
2022/04/12 07:25:41;;;;;;;;;;;;;;;13.56;43.61;100176.03;4993564;28;1154;-57
2022/04/12 07:28:08;;;;;;;;;;;;;;;15.65;34.81;100174.44;4993806;28;879;-57
2022/04/12 07:30:34;;;;;;;;;;;;;;;16.26;33.59;100172.44;4994043;28;862;-57
2022/04/12 07:33:01;;;;;;;;;;;;;;;15.53;36.80;100177.88;4993602;28;859;-57
2022/04/12 07:35:27;;;;;;;;;;;;;;;14.17;40.33;100174.53;4993727;28;918;-57
2022/04/12 07:37:55;;;;;;;;;;;;;;;12.67;43.76;100172.09;4993844;28;890;-57
2022/04/12 07:40:21;;;;;;;;;;;;;;;11.65;42.76;100173.03;4993685;28;839;-57
2022/04/12 07:42:48;;;;;;;;;;;;;;;10.91;42.74;100177.50;4993537;28;1915;-56
2022/04/12 07:45:14;;;;;;;;;;;;;;;12.74;44.47;100176.78;4994052;28;875;-57
2022/04/12 07:47:40;;;;;;;;;;;;;;;13.99;42.26;100177.53;4993672;28;898;-57
2022/04/12 07:50:07;;;;;;;;;;;;;;;13.24;43.11;100181.91;4994008;28;751;-57
2022/04/12 07:52:35;;;;;;;;;;;;;;;12.50;45.71;100170.22;4975997;28;1606;-57
2022/04/12 07:55:01;;;;;;;;;;;;;;;11.92;45.36;100173.31;4994108;28;819;-57
2022/04/12 07:57:29;;;;;;;;;;;;;;;12.94;46.16;100177.81;4993689;28;870;-57
2022/04/12 07:59:56;;;;;;;;;;;;;;;12.71;43.90;100175.63;4993952;28;823;-56
2022/04/12 08:02:22;;;;;;;;;;;;;;;12.04;44.39;100174.88;4993313;28;1907;-57
2022/04/12 08:04:48;;;;;;;;;;;;;;;11.71;42.94;100174.16;4993995;28;808;-56
2022/04/12 08:07:16;;;;;;;;;;;;;;;12.94;42.46;100177.03;4993356;28;1002;-56
2022/04/12 08:09:43;;;;;;;;;;;;;;;14.63;40.90;100173.84;4975097;28;1693;-57
2022/04/12 08:12:09;;;;;;;;;;;;;;;14.50;38.60;100176.41;4993354;28;819;-57
2022/04/12 08:14:36;;;;;;;;;;;;;;;13.71;39.97;100185.00;4992889;28;839;-57
2022/04/12 08:17:03;;;;;;;;;;;;;;;12.92;38.39;100182.19;4992896;28;890;-57
2022/04/12 08:19:29;;;;;;;;;;;;;;;12.30;40.08;100176.31;4992825;28;836;-57
2022/04/12 08:21:56;;;;;;;;;;;;;;;11.77;40.23;100169.00;4992776;28;1911;-57
2022/04/12 08:24:23;;;;;;;;;;;;;;;11.58;41.36;100170.25;4993029;28;910;-57
2022/04/12 08:26:50;;;;;;;;;;;;;;;11.32;40.80;100177.06;4992650;28;1285;-57
2022/04/12 08:29:16;;;;;;;;;;;;;;;11.23;41.83;100174.69;4992697;28;878;-56
2022/04/12 08:31:43;;;;;;;;;;;;;;;11.21;40.63;100168.78;4992750;28;878;-57
2022/04/12 08:34:09;;;;;;;;;;;;;;;11.33;39.83;100165.59;4992588;28;823;-56
2022/04/12 08:36:36;;;;;;;;;;;;;;;13.59;41.33;100163.31;4992612;28;886;-57
2022/04/12 08:39:02;;;;;;;;;;;;;;;15.42;35.02;100152.22;4992476;28;942;-57
2022/04/12 08:41:29;;;;;;;;;;;;;;;15.17;34.25;100147.91;4992478;28;1977;-57
2022/04/12 08:43:57;;;;;;;;;;;;;;;13.69;35.20;100151.28;4992604;28;866;-57
2022/04/12 08:46:27;;;;;;;;;;;;;;;12.72;36.79;100155.03;4992495;28;848;-57
2022/04/12 08:48:57;;;;;;;;;;;;;;;12.23;35.31;100146.66;4992329;28;935;-57
2022/04/12 08:51:27;;;;;;;;;;;;;;;11.89;35.85;100151.19;4992897;28;850;-57
2022/04/12 08:53:57;;;;;;;;;;;;;;;11.75;35.27;100149.25;4992353;28;942;-57
2022/04/12 08:56:24;;;;;;;;;;;;;;;12.10;35.89;100147.50;4992182;28;947;-57
2022/04/12 08:58:50;;;;;;;;;;;;;;;13.31;34.36;100156.09;4992502;28;807;-56
2022/04/12 09:01:16;;;;;;;;;;;;;;;14.04;34.20;100157.63;4992217;28;806;-57
2022/04/12 09:03:45;;;;;;;;;;;;;;;14.71;38.70;100152.28;4992464;28;1886;-57
2022/04/12 09:06:12;;;;;;;;;;;;;;;15.31;33.74;100141.28;4974794;28;1383;-58
2022/04/12 09:08:40;;;;;;;;;;;;;;;14.19;36.53;100139.53;4992174;28;839;-57
2022/04/12 09:11:08;;;;;;;;;;;;;;;14.76;37.21;100140.66;4992319;28;835;-57
2022/04/12 09:13:37;;;;;;;;;;;;;;;15.80;36.22;100135.19;4992065;28;888;-57
2022/04/12 09:16:07;;;;;;;;;;;;;;;15.13;33.72;100129.69;4992132;28;827;-57
2022/04/12 09:18:50;;;;;;;;;;;;;;;14.06;36.33;100130.16;4992105;28;807;-57
2022/04/12 09:21:17;;;;;;;;;;;;;;;12.97;37.15;100142.91;4994899;28;866;-57
2022/04/12 09:23:50;;;;;;;;;;;;;;;12.42;38.53;100141.78;4978581;28;1878;-57
2022/04/12 09:26:23;;;;;;;;;;;;;;;12.08;38.02;100144.34;4995825;28;1387;-57
2022/04/12 09:28:52;;;;;;;;;;;;;;;12.05;38.51;100141.22;4978992;28;1202;-57
2022/04/12 09:31:19;;;;;;;;;;;;;;;12.21;41.33;100145.47;4995962;28;847;-56
2022/04/12 09:33:47;;;;;;;;;;;;;;;12.93;37.32;100142.16;4996011;28;804;-57
2022/04/12 09:36:13;;;;;;;;;;;;;;;14.03;36.07;100137.34;4995805;28;855;-57
2022/04/12 09:38:41;;;;;;;;;;;;;;;14.65;33.59;100123.38;4995749;28;887;-57
2022/04/12 09:41:13;;;;;;;;;;;;;;;14.19;35.75;100127.59;4995868;28;807;-57
2022/04/12 09:44:05;;;;;;;;;;;;;;;13.88;33.63;100130.44;4995602;28;1910;-57
2022/04/12 09:46:32;;;;;;;;;;;;;;;13.18;35.16;100139.13;4995603;28;911;-57
2022/04/12 09:48:59;;;;;;;;;;;;;;;12.52;37.05;100135.34;4995904;28;866;-57
2022/04/12 09:51:26;;;;;;;;;;;;;;;12.38;38.41;100129.94;4995663;28;897;-57
2022/04/12 09:53:53;;;;;;;;;;;;;;;12.38;36.52;100135.47;4995504;28;906;-57
2022/04/12 09:56:20;;;;;;;;;;;;;;;12.29;35.37;100124.84;4995568;28;819;-57
2022/04/12 10:24:38;;;;;;;;;;;;;;;13.01;32.69;100121.47;5744310;23;1741;-57
2022/04/12 10:27:06;;;;;;;;;;;;;;;13.08;32.90;100129.75;4975627;28;838;-57
2022/04/12 10:29:31;;;;;;;;;;;;;;;13.24;29.86;100129.94;4975542;28;953;-56
2022/04/12 10:32:00;;;;;;;;;;;;;;;13.48;31.72;100105.13;4974635;28;803;-56
2022/04/12 10:34:27;;;;;;;;;;;;;;;12.95;32.19;100114.78;4975448;28;866;-57
2022/04/12 10:37:00;;;;;;;;;;;;;;;12.86;34.06;100116.03;4975345;28;937;-57
2022/04/12 10:39:29;;;;;;;;;;;;;;;12.67;35.05;100113.84;4975571;28;881;-57
2022/04/12 10:41:58;;;;;;;;;;;;;;;12.85;34.09;100113.72;4975212;28;1966;-57
2022/04/12 10:44:25;;;;;;;;;;;;;;;12.98;35.60;100112.00;4975963;28;844;-57
2022/04/12 10:46:52;;;;;;;;;;;;;;;12.51;32.15;100113.59;4975776;28;775;-57
2022/04/12 10:49:22;;;;;;;;;;;;;;;11.77;33.21;100116.41;4975349;28;894;-57
2022/04/12 10:52:00;;;;;;;;;;;;;;;11.82;34.53;100118.72;4975381;28;838;-57
2022/04/12 10:54:30;;;;;;;;;;;;;;;13.17;37.46;100112.59;4975015;28;918;-57
2022/04/12 10:57:16;;;;;;;;;;;;;;;13.34;33.96;100114.41;4974955;28;898;-57
2022/04/12 10:59:52;;;;;;;;;;;;;;;13.16;34.65;100113.78;4975001;28;944;-57
2022/04/12 11:05:44;;;;;;;;;;;;;;;13.91;33.13;100101.78;4969311;28;1183;-57
2022/04/12 11:08:16;;;;;;;;;;;;;;;13.34;30.39;100099.75;4974719;28;903;-57
2022/04/12 11:11:04;;;;;;;;;;;;;;;13.50;33.09;100108.28;4974816;28;917;-57
2022/04/12 11:13:32;;;;;;;;;;;;;;;13.50;34.13;100104.72;4974343;28;1690;-58
2022/04/12 11:16:03;;;;;;;;;;;;;;;13.39;32.56;100102.84;4974742;28;913;-57
2022/04/12 11:18:48;;;;;;;;;;;;;;;14.04;33.46;100102.03;4974841;28;957;-57
2022/04/12 11:21:16;;;;;;;;;;;;;;;14.03;34.35;100097.66;4957265;28;1240;-57
2022/04/12 11:23:56;;;;;;;;;;;;;;;13.54;36.34;100103.47;4974658;28;1883;-57
2022/04/12 11:26:47;;;;;;;;;;;;;;;13.02;34.18;100106.41;4974316;28;1454;-58
2022/04/12 11:29:15;;;;;;;;;;;;;;;12.98;35.52;100100.09;4974668;28;849;-57
2022/04/12 11:31:45;;;;;;;;;;;;;;;12.63;34.04;100093.66;4974310;28;918;-57
2022/04/12 11:34:12;;;;;;;;;;;;;;;12.67;38.85;100097.22;4956963;28;1505;-57
2022/04/12 11:36:40;;;;;;;;;;;;;;;13.17;35.11;100101.50;4974340;28;902;-57
2022/04/12 11:39:06;;;;;;;;;;;;;;;13.16;35.59;100097.91;4974568;28;783;-57
2022/04/12 11:41:33;;;;;;;;;;;;;;;13.45;34.36;100092.09;4974044;28;1939;-57
2022/04/12 11:44:01;;;;;;;;;;;;;;;13.11;32.40;100090.06;4973973;28;926;-57
2022/04/12 11:46:28;;;;;;;;;;;;;;;12.69;33.90;100086.50;4974140;28;855;-58
2022/04/12 11:49:04;;;;;;;;;;;;;;;12.45;33.23;100089.06;4974064;28;795;-57
2022/04/12 11:51:35;;;;;;;;;;;;;;;12.62;36.09;100086.56;4973921;28;878;-57
2022/04/12 11:54:18;;;;;;;;;;;;;;;13.12;34.53;100080.53;4974214;28;827;-57
2022/04/12 11:57:04;;;;;;;;;;;;;;;12.94;31.78;100079.94;4973916;28;826;-57
2022/04/12 11:59:33;;;;;;;;;;;;;;;12.70;32.36;100076.22;4973930;28;862;-57
2022/04/12 12:02:01;;;;;;;;;;;;;;;12.59;35.09;100071.53;4973648;28;1874;-57
2022/04/12 12:04:31;;;;;;;;;;;;;;;12.50;31.85;100075.97;4973783;28;862;-57
2022/04/12 12:07:06;;;;;;;;;;;;;;;12.37;32.83;100059.81;4973753;28;846;-57
2022/04/12 12:09:34;;;;;;;;;;;;;;;12.39;32.33;100062.97;4973565;28;911;-57
2022/04/12 12:12:04;;;;;;;;;;;;;;;12.25;33.41;100063.13;4973935;28;890;-57
2022/04/12 12:14:32;;;;;;;;;;;;;;;12.29;33.91;100063.06;4973487;28;928;-57
2022/04/12 12:17:01;;;;;;;;;;;;;;;12.24;33.92;100069.84;4973498;28;891;-57
2022/04/12 12:19:28;;;;;;;;;;;;;;;12.18;33.34;100063.16;4973418;28;908;-57
2022/04/12 12:21:55;;;;;;;;;;;;;;;12.09;33.27;100058.06;4973461;28;1879;-57
2022/04/12 12:24:21;;;;;;;;;;;;;;;12.08;35.08;100069.53;4973393;28;938;-58
2022/04/12 12:26:56;;;;;;;;;;;;;;;12.16;34.85;100060.81;4973197;28;1420;-56
2022/04/12 12:29:24;;;;;;;;;;;;;;;12.01;33.93;100065.66;4956059;28;1662;-57
2022/04/12 12:31:58;;;;;;;;;;;;;;;11.98;33.88;100057.34;4973500;28;929;-57
2022/04/12 12:34:31;;;;;;;;;;;;;;;11.95;35.14;100061.72;4973452;28;1019;-57
2022/04/12 12:36:58;;;;;;;;;;;;;;;12.25;34.29;100065.88;4973169;28;919;-57
2022/04/12 12:39:28;;;;;;;;;;;;;;;12.26;34.30;100064.69;4973189;28;815;-57
2022/04/12 12:41:55;;;;;;;;;;;;;;;12.30;35.54;100050.81;4972976;28;1898;-57
2022/04/12 12:44:21;;;;;;;;;;;;;;;12.52;33.89;100057.72;4973100;28;863;-57
2022/04/12 12:46:54;;;;;;;;;;;;;;;12.59;35.02;100059.66;4973057;28;856;-57
2022/04/12 12:49:21;;;;;;;;;;;;;;;12.52;33.26;100054.16;4973236;28;839;-57
2022/04/12 12:51:49;;;;;;;;;;;;;;;12.42;35.01;100066.94;4973297;28;829;-57
2022/04/12 12:54:17;;;;;;;;;;;;;;;12.19;34.78;100068.28;4973087;28;851;-57
2022/04/12 12:56:45;;;;;;;;;;;;;;;12.24;34.90;100067.84;4972758;28;890;-57
2022/04/12 12:59:21;;;;;;;;;;;;;;;12.21;36.07;100068.66;4972995;28;831;-57
2022/04/12 13:01:49;;;;;;;;;;;;;;;12.20;35.08;100061.53;4972899;28;1890;-57
2022/04/12 13:04:29;;;;;;;;;;;;;;;12.34;34.99;100060.66;4972875;28;847;-57
2022/04/12 13:07:02;;;;;;;;;;;;;;;12.30;34.03;100070.97;4972890;28;894;-57
2022/04/12 13:09:29;;;;;;;;;;;;;;;12.51;35.67;100063.69;4972843;28;803;-57
2022/04/12 13:11:56;;;;;;;;;;;;;;;12.51;35.20;100064.47;4972813;28;803;-57
2022/04/12 13:14:23;;;;;;;;;;;;;;;12.56;36.04;100066.03;4972739;28;894;-58
2022/04/12 13:16:49;;;;;;;;;;;;;;;12.40;35.17;100067.34;4972705;28;827;-57
2022/04/12 13:19:25;;;;;;;;;;;;;;;12.28;36.54;100072.59;4972852;28;989;-57
2022/04/12 13:21:53;;;;;;;;;;;;;;;12.21;35.91;100067.88;4972525;28;1886;-57
2022/04/12 13:24:20;;;;;;;;;;;;;;;12.29;37.11;100071.38;4972802;28;938;-57
2022/04/12 13:26:46;;;;;;;;;;;;;;;12.28;36.53;100073.38;4972418;28;1162;-57
2022/04/12 13:29:13;;;;;;;;;;;;;;;11.88;36.93;100074.78;4972537;28;891;-57
2022/04/12 13:31:39;;;;;;;;;;;;;;;11.56;37.46;100079.31;4972649;28;922;-57
2022/04/12 13:34:06;;;;;;;;;;;;;;;11.35;39.06;100080.19;4972564;28;835;-57
2022/04/12 13:36:32;;;;;;;;;;;;;;;11.26;38.57;100077.06;4972594;28;835;-57